createdAt,value
2018-11-11T00:00:19.484Z,2.10
2018-11-11T00:02:49.892Z,2.20
2018-11-11T00:05:19.004Z,2.33
2018-11-11T00:07:48.161Z,2.03
2018-11-11T00:10:17.291Z,2.00
2018-11-11T00:12:47.155Z,2.10
2018-11-11T00:15:17.294Z,2.03
2018-11-11T00:17:47.749Z,2.03
2018-11-11T00:20:17.405Z,1.73
2018-11-11T00:22:46.505Z,1.70
2018-11-11T00:25:15.701Z,1.93
2018-11-11T00:27:44.975Z,1.80
2018-11-11T00:30:16.638Z,1.70
2018-11-11T00:32:46.005Z,1.70
2018-11-11T00:35:15.280Z,1.80
2018-11-11T00:37:44.703Z,1.80
2018-11-11T00:40:15.120Z,1.97
2018-11-11T00:42:44.638Z,2.00
2018-11-11T00:45:14.650Z,2.10
2018-11-11T00:47:44.517Z,2.07
2018-11-11T00:50:13.917Z,1.80
2018-11-11T00:52:43.100Z,2.00
2018-11-11T00:55:14.707Z,2.13
2018-11-11T00:57:44.613Z,2.50
2018-11-11T01:00:16.644Z,2.23
2018-11-11T01:02:46.744Z,1.93
2018-11-11T01:05:16.508Z,1.90
2018-11-11T01:07:45.764Z,2.40
2018-11-11T01:10:16.774Z,2.40
2018-11-11T01:12:46.613Z,2.50
2018-11-11T01:15:16.629Z,2.87
2018-11-11T01:17:46.568Z,2.80
2018-11-11T01:20:16.845Z,2.70
2018-11-11T01:22:46.853Z,3.17
2018-11-11T01:25:17.180Z,2.70
2018-11-11T01:27:46.405Z,2.33
2018-11-11T01:30:15.530Z,2.80
2018-11-11T01:32:44.755Z,2.80
2018-11-11T01:35:15.101Z,2.90
2018-11-11T01:37:45.664Z,2.93
2018-11-11T01:40:14.977Z,2.57
2018-11-11T01:42:44.140Z,2.77
2018-11-11T01:45:17.231Z,3.13
2018-11-11T01:47:47.084Z,2.67
2018-11-11T01:50:16.560Z,2.97
2018-11-11T01:52:45.807Z,2.70
2018-11-11T01:55:15.049Z,3.00
2018-11-11T01:57:44.152Z,3.30
2018-11-11T02:00:16.881Z,2.63
2018-11-11T02:02:47.432Z,2.97
2018-11-11T02:05:16.776Z,2.60
2018-11-11T02:07:47.001Z,2.50
2018-11-11T02:10:16.306Z,2.50
2018-11-11T02:12:46.862Z,2.80
2018-11-11T02:15:17.656Z,2.90
2018-11-11T02:17:47.445Z,2.60
2018-11-11T02:20:18.073Z,2.80
2018-11-11T02:22:48.773Z,3.00
2018-11-11T02:25:18.007Z,2.80
2018-11-11T02:27:48.673Z,2.70
2018-11-11T02:30:19.175Z,2.80
2018-11-11T02:32:48.342Z,3.10
2018-11-11T02:35:17.561Z,2.77
2018-11-11T02:37:48.124Z,2.90
2018-11-11T02:40:18.857Z,3.30
2018-11-11T02:42:48.635Z,3.80
2018-11-11T02:45:18.784Z,3.30
2018-11-11T02:47:47.977Z,3.50
2018-11-11T02:50:18.200Z,3.23
2018-11-11T02:52:47.804Z,3.40
2018-11-11T02:55:17.533Z,3.13
2018-11-11T02:57:47.460Z,3.20
2018-11-11T03:00:18.994Z,2.80
2018-11-11T03:02:48.580Z,3.40
2018-11-11T03:05:18.584Z,3.00
2018-11-11T03:07:48.398Z,3.10
2018-11-11T03:10:18.527Z,2.97
2018-11-11T03:12:48.582Z,2.80
2018-11-11T03:15:18.072Z,3.00
2018-11-11T03:17:47.168Z,2.67
2018-11-11T03:20:17.109Z,2.93
2018-11-11T03:22:46.402Z,2.80
2018-11-11T03:25:16.850Z,2.80
2018-11-11T03:27:46.101Z,2.50
2018-11-11T03:30:16.629Z,2.33
2018-11-11T03:32:46.014Z,2.70
2018-11-11T03:35:16.478Z,2.67
2018-11-11T03:37:46.524Z,2.37
2018-11-11T03:40:18.256Z,2.40
2018-11-11T03:42:47.708Z,2.40
2018-11-11T03:45:18.617Z,2.60
2018-11-11T03:47:48.877Z,2.63
2018-11-11T03:50:18.119Z,2.83
2018-11-11T03:52:48.204Z,2.40
2018-11-11T03:55:17.628Z,2.80
2018-11-11T03:57:46.753Z,2.17
2018-11-11T04:00:16.737Z,2.37
2018-11-11T04:02:45.959Z,2.30
2018-11-11T04:05:16.524Z,2.53
2018-11-11T04:07:45.684Z,2.37
2018-11-11T04:10:16.488Z,2.53
2018-11-11T04:12:45.969Z,2.03
2018-11-11T04:15:16.438Z,2.17
2018-11-11T04:17:47.468Z,2.03
2018-11-11T04:20:19.230Z,2.30
2018-11-11T04:22:48.917Z,2.20
2018-11-11T04:25:19.292Z,2.10
2018-11-11T04:27:48.593Z,2.40
2018-11-11T04:30:17.704Z,2.40
2018-11-11T04:32:46.992Z,2.27
2018-11-11T04:35:16.350Z,2.37
2018-11-11T04:37:45.573Z,2.30
2018-11-11T04:40:14.731Z,2.47
2018-11-11T04:42:44.103Z,2.60
2018-11-11T04:45:14.846Z,2.33
2018-11-11T04:47:45.440Z,2.43
2018-11-11T04:50:16.044Z,2.30
2018-11-11T04:52:46.020Z,2.10
2018-11-11T04:55:15.204Z,2.40
2018-11-11T04:57:44.411Z,1.90
2018-11-11T05:00:15.161Z,2.33
2018-11-11T05:02:44.332Z,2.47
2018-11-11T05:05:14.905Z,2.27
2018-11-11T05:07:44.036Z,2.43
2018-11-11T05:10:13.832Z,2.20
2018-11-11T05:12:42.977Z,2.47
2018-11-11T05:15:13.319Z,1.90
2018-11-11T05:17:43.446Z,2.07
2018-11-11T05:20:13.249Z,2.33
2018-11-11T05:22:43.069Z,2.40
2018-11-11T05:25:14.385Z,2.40
2018-11-11T05:27:44.539Z,1.90
2018-11-11T05:30:15.065Z,1.90
2018-11-11T05:32:45.632Z,2.00
2018-11-11T05:35:14.852Z,2.10
2018-11-11T05:37:44.649Z,1.93
2018-11-11T05:40:14.453Z,1.80
2018-11-11T05:42:44.305Z,1.53
2018-11-11T05:45:14.690Z,1.90
2018-11-11T05:47:44.149Z,1.70
2018-11-11T05:50:15.521Z,1.70
2018-11-11T05:52:45.881Z,1.50
2018-11-11T05:55:15.136Z,1.50
2018-11-11T05:57:44.272Z,1.70
2018-11-11T06:00:14.648Z,1.90
2018-11-11T06:02:45.636Z,1.63
2018-11-11T06:05:15.584Z,1.90
2018-11-11T06:07:44.860Z,1.40
2018-11-11T06:10:15.044Z,1.73
2018-11-11T06:12:44.273Z,1.70
2018-11-11T06:15:14.245Z,1.43
2018-11-11T06:17:43.452Z,1.50
2018-11-11T06:20:16.106Z,1.77
2018-11-11T06:22:45.268Z,1.40
2018-11-11T06:25:14.405Z,1.50
2018-11-11T06:27:43.878Z,1.23
2018-11-11T06:30:13.572Z,1.27
2018-11-11T06:32:42.808Z,1.20
2018-11-11T06:35:11.973Z,1.33
2018-11-11T06:37:41.565Z,1.23
2018-11-11T06:40:12.265Z,1.40
2018-11-11T06:42:41.890Z,1.20
2018-11-11T06:45:13.272Z,1.07
2018-11-11T06:47:43.212Z,1.30
2018-11-11T06:50:13.667Z,1.20
2018-11-11T06:52:43.705Z,1.30
2018-11-11T06:55:13.135Z,1.00
2018-11-11T06:57:42.217Z,1.23
2018-11-11T07:00:13.841Z,1.20
2018-11-11T07:03:00.275Z,1.20
2018-11-11T07:05:29.493Z,1.00
2018-11-11T07:07:58.657Z,1.10
2018-11-11T07:10:27.801Z,1.07
2018-11-11T07:12:56.949Z,1.10
2018-11-11T07:15:26.073Z,1.00
2018-11-11T07:17:55.217Z,0.90
2018-11-11T07:20:24.428Z,0.90
2018-11-11T07:22:53.564Z,0.90
2018-11-11T07:25:22.709Z,0.80
2018-11-11T07:27:51.957Z,0.80
2018-11-11T07:30:21.585Z,0.97
2018-11-11T07:32:50.654Z,0.77
2018-11-11T07:35:19.749Z,0.70
2018-11-11T07:37:48.887Z,0.73
2018-11-11T07:40:18.046Z,0.60
2018-11-11T07:42:47.198Z,0.87
2018-11-11T07:45:16.397Z,0.67
2018-11-11T07:47:46.070Z,0.90
2018-11-11T07:50:15.203Z,0.60
2018-11-11T07:52:44.305Z,0.67
2018-11-11T07:55:13.577Z,0.70
2018-11-11T07:57:42.868Z,0.95
2018-11-11T08:00:13.760Z,0.90
2018-11-11T08:02:43.656Z,0.60
2018-11-11T08:05:12.844Z,0.65
2018-11-11T08:07:41.998Z,0.50
2018-11-11T08:10:28.360Z,0.72
2018-11-11T08:12:57.733Z,0.80
2018-11-11T08:15:27.302Z,0.82
2018-11-11T08:17:56.469Z,0.80
2018-11-11T08:20:25.609Z,0.70
2018-11-11T08:22:55.325Z,0.60
2018-11-11T08:25:24.576Z,0.80
2018-11-11T08:27:53.717Z,0.90
2018-11-11T08:30:22.892Z,0.80
2018-11-11T08:32:52.001Z,0.70
2018-11-11T08:35:21.597Z,0.65
2018-11-11T08:37:50.680Z,0.88
2018-11-11T08:40:19.813Z,0.70
2018-11-11T08:42:49.539Z,0.75
2018-11-11T08:45:18.697Z,0.70
2018-11-11T08:47:47.845Z,0.70
2018-11-11T08:50:17.009Z,0.80
2018-11-11T08:52:46.076Z,0.70
2018-11-11T08:55:15.201Z,0.65
2018-11-11T08:57:44.367Z,0.85
2018-11-11T09:00:14.728Z,0.75
2018-11-11T09:02:43.909Z,0.78
2018-11-11T09:05:13.446Z,0.85
2018-11-11T09:07:42.601Z,1.00
2018-11-11T09:10:12.512Z,0.70
2018-11-11T09:12:41.649Z,0.62
2018-11-11T09:15:13.514Z,0.80
2018-11-11T09:17:43.798Z,0.82
2018-11-11T09:20:14.277Z,1.10
2018-11-11T09:22:43.516Z,0.82
2018-11-11T09:25:12.888Z,0.60
2018-11-11T09:27:42.585Z,0.90
2018-11-11T09:30:13.723Z,0.70
2018-11-11T09:32:42.965Z,1.00
2018-11-11T09:35:12.108Z,0.90
2018-11-11T09:37:41.510Z,0.93
2018-11-11T09:40:11.968Z,0.82
2018-11-11T09:42:41.231Z,0.90
2018-11-11T09:45:12.783Z,0.85
2018-11-11T09:47:42.410Z,0.80
2018-11-11T09:50:13.605Z,1.15
2018-11-11T09:52:42.791Z,0.90
2018-11-11T09:55:12.869Z,1.00
2018-11-11T09:57:42.613Z,1.20
2018-11-11T10:00:17.252Z,0.98
2018-11-11T10:02:56.192Z,1.00
2018-11-11T10:05:41.552Z,1.20
2018-11-11T10:08:19.213Z,0.98
2018-11-11T10:11:10.377Z,0.80
2018-11-11T10:14:18.121Z,1.07
2018-11-11T10:16:57.292Z,1.10
2018-11-11T10:19:32.260Z,0.95
2018-11-11T10:23:05.505Z,1.00
2018-11-11T10:25:51.116Z,1.10
2018-11-11T10:29:23.702Z,1.30
2018-11-11T10:32:01.481Z,1.20
2018-11-11T10:34:48.621Z,0.90
2018-11-11T10:37:22.098Z,1.40
2018-11-11T10:39:55.106Z,0.90
2018-11-11T10:42:28.865Z,1.00
2018-11-11T10:45:03.517Z,1.20
2018-11-11T10:47:50.733Z,1.20
2018-11-11T10:50:37.521Z,1.25
2018-11-11T10:53:06.925Z,1.17
2018-11-11T10:55:36.092Z,1.00
2018-11-11T10:58:05.384Z,1.12
2018-11-11T11:00:39.944Z,1.00
2018-11-11T11:03:14.284Z,1.10
2018-11-11T11:05:43.505Z,1.10
2018-11-11T11:08:12.709Z,1.30
2018-11-11T11:10:41.829Z,1.15
2018-11-11T11:13:11.101Z,1.35
2018-11-11T11:15:40.165Z,1.45
2018-11-11T11:18:09.362Z,1.45
2018-11-11T11:20:38.593Z,1.30
2018-11-11T11:23:07.769Z,1.70
2018-11-11T11:25:36.932Z,1.30
2018-11-11T11:28:06.160Z,1.30
2018-11-11T11:30:35.647Z,1.30
2018-11-11T11:33:04.778Z,1.22
2018-11-11T11:35:33.903Z,1.30
2018-11-11T11:38:03.064Z,1.52
2018-11-11T11:40:32.220Z,1.30
2018-11-11T11:43:01.442Z,1.27
2018-11-11T11:45:30.528Z,1.70
2018-11-11T11:47:59.628Z,1.42
2018-11-11T11:50:28.822Z,1.40
2018-11-11T11:52:58.400Z,1.22
2018-11-11T11:55:27.442Z,1.30
2018-11-11T11:58:15.941Z,1.25
2018-11-11T12:00:45.180Z,1.40
2018-11-11T12:03:14.717Z,1.30
2018-11-11T12:05:44.405Z,1.40
2018-11-11T12:08:13.626Z,1.40
2018-11-11T12:10:42.868Z,1.10
2018-11-11T12:13:13.625Z,1.50
2018-11-11T12:15:43.101Z,1.60
2018-11-11T12:18:12.717Z,1.50
2018-11-11T12:20:42.561Z,1.40
2018-11-11T12:23:12.079Z,1.20
2018-11-11T12:25:42.165Z,1.52
2018-11-11T12:28:12.276Z,1.40
2018-11-11T12:30:41.575Z,1.30
2018-11-11T12:33:10.637Z,1.40
2018-11-11T12:35:40.948Z,1.20
2018-11-11T12:38:10.033Z,1.80
2018-11-11T12:40:39.795Z,1.75
2018-11-11T12:43:08.934Z,1.27
2018-11-11T12:45:38.038Z,1.20
2018-11-11T12:48:07.320Z,1.30
2018-11-11T12:50:36.465Z,1.37
2018-11-11T12:53:05.994Z,1.30
2018-11-11T12:55:35.783Z,1.20
2018-11-11T12:58:05.565Z,1.10
2018-11-11T13:00:34.668Z,1.35
2018-11-11T13:03:04.533Z,1.40
2018-11-11T13:05:34.302Z,1.40
2018-11-11T13:08:03.426Z,1.12
2018-11-11T13:10:32.749Z,1.30
2018-11-11T13:13:01.914Z,1.32
2018-11-11T13:15:31.276Z,1.20
2018-11-11T13:18:00.481Z,1.02
2018-11-11T13:20:30.789Z,1.02
2018-11-11T13:22:59.911Z,1.30
2018-11-11T13:25:28.967Z,1.15
2018-11-11T13:27:58.177Z,1.42
2018-11-11T13:30:27.293Z,1.20
2018-11-11T13:32:57.109Z,1.40
2018-11-11T13:35:26.243Z,1.20
2018-11-11T13:37:55.460Z,1.47
2018-11-11T13:40:25.105Z,1.50
2018-11-11T13:42:54.181Z,1.10
2018-11-11T13:45:23.677Z,1.30
2018-11-11T13:47:52.829Z,1.52
2018-11-11T13:50:23.609Z,1.40
2018-11-11T13:52:52.796Z,1.17
2018-11-11T13:55:23.421Z,1.52
2018-11-11T13:57:53.535Z,1.10
2018-11-11T14:00:26.004Z,1.10
2018-11-11T14:02:55.541Z,1.10
2018-11-11T14:05:25.203Z,1.17
2018-11-11T14:07:54.572Z,1.55
2018-11-11T14:10:23.661Z,1.20
2018-11-11T14:12:52.881Z,1.02
2018-11-11T14:15:23.561Z,1.00
2018-11-11T14:17:53.316Z,1.10
2018-11-11T14:20:23.726Z,1.12
2018-11-11T14:22:53.837Z,1.25
2018-11-11T14:25:27.354Z,1.27
2018-11-11T14:27:56.481Z,1.30
2018-11-11T14:30:26.605Z,1.47
2018-11-11T14:32:56.853Z,1.30
2018-11-11T14:35:26.049Z,1.15
2018-11-11T14:37:55.248Z,1.17
2018-11-11T14:40:27.021Z,1.20
2018-11-11T14:42:56.149Z,1.27
2018-11-11T14:45:25.669Z,1.32
2018-11-11T14:47:55.830Z,1.40
2018-11-11T14:50:25.431Z,1.50
2018-11-11T14:52:54.768Z,1.27
2018-11-11T14:55:26.170Z,1.00
2018-11-11T14:57:55.919Z,1.20
2018-11-11T15:00:32.681Z,1.12
2018-11-11T15:03:08.913Z,1.45
2018-11-11T15:05:38.189Z,1.25
2018-11-11T15:08:07.878Z,1.35
2018-11-11T15:10:36.890Z,1.45
2018-11-11T15:13:07.468Z,1.35
2018-11-11T15:15:36.814Z,1.25
2018-11-11T15:18:06.489Z,1.20
2018-11-11T15:20:36.068Z,1.40
2018-11-11T15:23:05.384Z,1.30
2018-11-11T15:25:34.571Z,1.10
2018-11-11T15:28:03.827Z,1.22
2018-11-11T15:30:35.311Z,1.10
2018-11-11T15:33:05.121Z,1.02
2018-11-11T15:35:34.331Z,1.40
2018-11-11T15:38:03.490Z,1.37
2018-11-11T15:40:34.164Z,1.40
2018-11-11T15:43:03.552Z,1.45
2018-11-11T15:45:33.925Z,1.30
2018-11-11T15:48:03.457Z,1.17
2018-11-11T15:50:33.674Z,1.10
2018-11-11T15:53:04.163Z,1.40
2018-11-11T15:55:34.589Z,1.00
2018-11-11T15:58:03.725Z,1.10
2018-11-11T16:00:35.741Z,1.37
2018-11-11T16:03:05.851Z,1.35
2018-11-11T16:05:35.064Z,1.27
2018-11-11T16:08:04.810Z,1.05
2018-11-11T16:10:34.740Z,1.07
2018-11-11T16:13:03.923Z,1.35
2018-11-11T16:15:36.462Z,1.32
2018-11-11T16:18:08.058Z,1.20
2018-11-11T16:20:37.144Z,1.25
2018-11-11T16:23:07.378Z,1.17
2018-11-11T16:25:37.062Z,1.30
2018-11-11T16:28:06.556Z,1.60
2018-11-11T16:30:36.717Z,1.00
2018-11-11T16:33:07.564Z,1.00
2018-11-11T16:35:36.658Z,1.30
2018-11-11T16:38:07.032Z,1.40
2018-11-11T16:40:37.315Z,1.20
2018-11-11T16:43:06.527Z,1.40
2018-11-11T16:45:36.426Z,1.33
2018-11-11T16:48:06.397Z,1.40
2018-11-11T16:50:41.148Z,1.40
2018-11-11T16:53:10.449Z,1.67
2018-11-11T16:55:40.100Z,1.20
2018-11-11T16:58:09.261Z,1.40
2018-11-11T17:00:38.993Z,1.30
2018-11-11T17:03:08.873Z,1.10
2018-11-11T17:05:38.664Z,1.23
2018-11-11T17:08:07.898Z,1.30
2018-11-11T17:10:38.101Z,1.20
2018-11-11T17:13:11.397Z,1.13
2018-11-11T17:15:40.667Z,1.67
2018-11-11T17:18:10.212Z,1.40
2018-11-11T17:20:39.633Z,1.30
2018-11-11T17:23:09.116Z,1.50
2018-11-11T17:25:38.295Z,1.10
2018-11-11T17:28:07.712Z,1.47
2018-11-11T17:30:36.827Z,1.10
2018-11-11T17:33:06.397Z,1.10
2018-11-11T17:35:35.483Z,1.00
2018-11-11T17:38:04.808Z,1.30
2018-11-11T17:40:34.218Z,1.03
2018-11-11T17:43:03.401Z,1.25
2018-11-11T17:45:32.623Z,1.30
2018-11-11T17:48:01.701Z,1.07
2018-11-11T17:50:32.089Z,1.30
2018-11-11T17:53:02.648Z,0.97
2018-11-11T17:55:32.324Z,1.10
2018-11-11T17:58:01.379Z,1.20
2018-11-11T18:00:31.741Z,1.13
2018-11-11T18:03:01.855Z,1.33
2018-11-11T18:05:32.161Z,0.83
2018-11-11T18:08:01.749Z,1.20
2018-11-11T18:10:31.345Z,1.17
2018-11-11T18:13:00.449Z,1.00
2018-11-11T18:15:31.885Z,1.20
2018-11-11T18:18:01.138Z,1.10
2018-11-11T18:20:31.710Z,1.20
2018-11-11T18:23:02.153Z,1.20
2018-11-11T18:25:31.336Z,1.10
2018-11-11T18:28:00.711Z,1.10
2018-11-11T18:30:31.146Z,0.97
2018-11-11T18:33:00.329Z,1.27
2018-11-11T18:35:30.013Z,1.30
2018-11-11T18:37:59.181Z,1.27
2018-11-11T18:40:29.120Z,1.00
2018-11-11T18:42:58.300Z,1.13
2018-11-11T18:45:29.623Z,1.00
2018-11-11T18:47:59.293Z,1.20
2018-11-11T18:50:31.286Z,1.10
2018-11-11T18:53:00.616Z,1.47
2018-11-11T18:55:30.337Z,1.10
2018-11-11T18:57:59.589Z,1.20
2018-11-11T19:00:30.313Z,1.20
2018-11-11T19:03:01.185Z,1.03
2018-11-11T19:05:30.442Z,1.27
2018-11-11T19:08:00.210Z,1.25
2018-11-11T19:10:30.934Z,1.30
2018-11-11T19:13:02.294Z,1.20
2018-11-11T19:15:31.535Z,1.25
2018-11-11T19:18:00.691Z,1.30
2018-11-11T19:20:30.303Z,1.02
2018-11-11T19:22:59.469Z,1.45
2018-11-11T19:25:29.740Z,1.35
2018-11-11T19:28:00.244Z,1.20
2018-11-11T19:30:30.022Z,1.37
2018-11-11T19:32:59.116Z,1.20
2018-11-11T19:35:28.236Z,1.30
2018-11-11T19:37:57.953Z,1.20
2018-11-11T19:40:28.128Z,1.25
2018-11-11T19:42:58.965Z,1.30
2018-11-11T19:45:29.282Z,1.30
2018-11-11T19:47:58.433Z,1.20
2018-11-11T19:50:29.021Z,1.13
2018-11-11T19:52:59.123Z,1.17
2018-11-11T19:55:28.285Z,1.30
2018-11-11T19:57:57.505Z,1.07
2018-11-11T20:00:28.105Z,1.15
2018-11-11T20:02:57.991Z,1.30
2018-11-11T20:05:27.081Z,1.33
2018-11-11T20:07:57.295Z,1.22
2018-11-11T20:10:27.849Z,1.37
2018-11-11T20:12:57.168Z,1.17
2018-11-11T20:15:28.777Z,1.25
2018-11-11T20:17:57.917Z,1.67
2018-11-11T20:20:31.887Z,1.22
2018-11-11T20:23:01.074Z,1.30
2018-11-11T20:25:30.227Z,1.20
2018-11-11T20:28:00.073Z,1.30
2018-11-11T20:30:30.553Z,1.32
2018-11-11T20:32:59.669Z,1.45
2018-11-11T20:35:30.182Z,1.10
2018-11-11T20:37:59.332Z,1.50
2018-11-11T20:40:29.050Z,1.20
2018-11-11T20:42:59.008Z,1.53
2018-11-11T20:45:29.615Z,1.37
2018-11-11T20:47:58.817Z,1.40
2018-11-11T20:50:29.265Z,1.50
2018-11-11T20:52:59.775Z,1.25
2018-11-11T20:55:28.916Z,1.67
2018-11-11T20:57:58.326Z,1.40
2018-11-11T21:00:28.789Z,1.40
2018-11-11T21:02:57.917Z,1.20
2018-11-11T21:05:27.776Z,1.45
2018-11-11T21:07:57.595Z,1.42
2018-11-11T21:10:27.905Z,1.27
2018-11-11T21:12:57.673Z,1.25
2018-11-11T21:15:28.380Z,1.50
2018-11-11T21:17:57.551Z,1.47
2018-11-11T21:20:28.186Z,1.35
2018-11-11T21:22:57.393Z,1.52
2018-11-11T21:25:26.880Z,1.30
2018-11-11T21:27:55.988Z,1.35
2018-11-11T21:30:26.584Z,1.85
2018-11-11T21:32:55.746Z,1.42
2018-11-11T21:35:24.937Z,1.30
2018-11-11T21:37:54.374Z,1.30
2018-11-11T21:40:24.637Z,1.47
2018-11-11T21:42:54.638Z,1.27
2018-11-11T21:45:24.795Z,1.32
2018-11-11T21:47:53.913Z,1.80
2018-11-11T21:50:24.409Z,1.40
2018-11-11T21:53:06.577Z,2.30
2018-11-11T21:55:35.743Z,2.90
2018-11-11T21:58:05.168Z,2.40
2018-11-11T22:00:34.400Z,2.20
2018-11-11T22:03:03.719Z,1.90
2018-11-11T22:05:32.859Z,1.95
2018-11-11T22:08:01.922Z,2.12
2018-11-11T22:10:31.201Z,2.20
2018-11-11T22:13:00.959Z,2.10
2018-11-11T22:15:30.128Z,2.15
2018-11-11T22:17:59.241Z,1.52
2018-11-11T22:20:29.061Z,1.60
2018-11-11T22:22:58.289Z,1.50
2018-11-11T22:25:27.421Z,1.47
2018-11-11T22:27:56.629Z,1.50
2018-11-11T22:30:25.838Z,1.47
2018-11-11T22:32:54.973Z,1.27
2018-11-11T22:35:24.118Z,1.90
2018-11-11T22:37:53.297Z,1.50
2018-11-11T22:40:22.437Z,1.60
2018-11-11T22:42:51.649Z,1.40
2018-11-11T22:45:20.757Z,1.47
2018-11-11T22:47:50.280Z,1.70
2018-11-11T22:50:19.901Z,1.50
2018-11-11T22:52:49.020Z,1.60
2018-11-11T22:55:18.146Z,1.40
2018-11-11T22:57:47.209Z,1.30
2018-11-11T23:00:22.274Z,1.97
2018-11-11T23:02:52.164Z,1.60
2018-11-11T23:05:22.020Z,1.60
2018-11-11T23:07:51.885Z,1.80
2018-11-11T23:10:21.128Z,1.53
2018-11-11T23:12:50.203Z,1.60
2018-11-11T23:15:20.738Z,1.50
2018-11-11T23:17:50.582Z,1.80
2018-11-11T23:20:20.536Z,1.80
2018-11-11T23:22:49.722Z,1.60
2018-11-11T23:25:19.306Z,1.63
2018-11-11T23:27:48.462Z,1.70
2018-11-11T23:30:20.321Z,1.57
2018-11-11T23:32:50.515Z,1.50
2018-11-11T23:35:20.252Z,1.50
2018-11-11T23:37:49.473Z,1.60
2018-11-11T23:40:19.404Z,1.63
2018-11-11T23:42:48.924Z,1.50
2018-11-11T23:45:18.089Z,1.40
2018-11-11T23:47:47.664Z,1.40
2018-11-11T23:50:18.202Z,1.40
2018-11-11T23:52:47.773Z,1.60
2018-11-11T23:55:18.637Z,1.40
2018-11-11T23:57:48.193Z,1.33
